Flight Track Log - Related Links

Times and Time Zones

All times are in EDT time to prevent confusion due to time zone crossing. See the UAL335 flight status page for this flight to view local times or setup timezone preferences in your user account.

Time Position Orientation Groundspeed Altitude Reporting Facility
EDT Latitude Longitude Course Direction KTS MPH feet Rate Location/Type
Mon 04:53:24 PM 27.9667 -82.5500 355° North 158 182 600  Level Tampa TRACON
Mon 04:54:42 PM 27.9000 -82.5667 192° South 207 238 2,700 2,217 Climbing Tampa TRACON
Mon 04:55:42 PM 27.9333 -82.6167 307° West 251 289 5,700 2,558 Climbing Tampa TRACON
Mon 04:56:00 PM 28.3103 -82.5667 North  Level FlightAware
Mon 04:57:00 PM 28.4267 -82.5710 355° North  Level FlightAware
Mon 04:57:52 PM 28.1017 -82.6103 North 288 331 10,800  Level Jacksonville Center
Mon 04:58:00 PM 28.5428 -82.5826 355° North  Level FlightAware
Mon 04:58:52 PM 28.2017 -82.5981 North 325 374 12,600  Level Jacksonville Center
Mon 04:59:52 PM 28.3039 -82.5883 North 352 405 15,400 2,250 Climbing Jacksonville Center
Mon 05:00:52 PM 28.4103 -82.5833 North 364 419 17,100 1,650 Climbing Jacksonville Center
Mon 05:01:52 PM 28.5022 -82.5856 359° North 369 425 18,700 1,750 Climbing Jacksonville Center
Mon 05:02:52 PM 28.6128 -82.5900 358° North 376 433 20,600 1,700 Climbing Jacksonville Center
Mon 05:03:52 PM 28.7381 -82.5989 356° North 391 450 22,100 1,350 Climbing Jacksonville Center
Mon 05:04:52 PM 28.8528 -82.6128 354° North 402 463 23,300 1,300 Climbing Jacksonville Center
Mon 05:05:52 PM 28.9697 -82.6292 353° North 409 471 24,700 1,250 Climbing Jacksonville Center
Mon 05:06:52 PM 29.0889 -82.6478 352° North 420 483 25,800 1,050 Climbing Jacksonville Center
Mon 05:07:52 PM 29.2142 -82.6617 354° North 432 497 26,800 1,250 Climbing Jacksonville Center
Mon 05:08:52 PM 29.3394 -82.6806 353° North 444 511 28,300 1,250 Climbing Jacksonville Center
Mon 05:09:52 PM 29.4647 -82.6922 355° North 449 517 29,300 1,150 Climbing Jacksonville Center
Mon 05:10:52 PM 29.5961 -82.6942 359° North 461 531 30,600 1,300 Climbing Jacksonville Center
Mon 05:11:52 PM 29.7236 -82.6942 360° North 461 531 31,900 1,150 Climbing Jacksonville Center
Mon 05:12:52 PM 29.8531 -82.6914 North 461 531 32,900 1,150 Climbing Jacksonville Center
Mon 05:13:52 PM 29.9803 -82.6911 360° North 456 525 34,200 1,000 Climbing Jacksonville Center
Mon 05:14:52 PM 30.1078 -82.6861 North 456 525 34,900 350 Climbing Jacksonville Center
Mon 05:15:52 PM 30.2308 -82.6858 360° North 456 525 34,900 50 Level Jacksonville Center
Mon 05:16:52 PM 30.3542 -82.6856 360° North 450 518 35,000  Climbing Jacksonville Center
Mon 05:17:52 PM 30.4792 -82.6806 North 450 518 34,900 -50 Descending Jacksonville Center
Mon 05:18:52 PM 30.5919 -82.6753 North 445 512 34,900 50 Level Jacksonville Center
Mon 05:19:52 PM 30.7214 -82.6653 North 451 519 35,000 150 Climbing Jacksonville Center
Mon 05:20:52 PM 30.8467 -82.6386 10° North 456 525 35,200 600 Climbing Jacksonville Center
Mon 05:21:52 PM 30.9739 -82.6042 13° North 461 531 36,200 850 Climbing Jacksonville Center
Mon 05:22:52 PM 31.0950 -82.5506 21° North 461 531 36,900 400 Climbing Jacksonville Center
Mon 05:23:52 PM 31.2139 -82.4869 25° Northeast 461 531 37,000  Climbing Jacksonville Center
Mon 05:24:52 PM 31.3347 -82.4256 23° Northeast 466 536 36,900  Descending Jacksonville Center
Mon 05:25:52 PM 31.4514 -82.3567 27° Northeast 466 536 37,000 50 Climbing Jacksonville Center
Mon 05:26:52 PM 31.5722 -82.3025 21° North 466 536 37,000  Level Jacksonville Center
Mon 05:27:52 PM 31.6908 -82.2308 27° Northeast 461 531 37,000  Level Jacksonville Center
Mon 05:28:52 PM 31.8242 -82.1614 24° Northeast 472 543 37,000  Level Jacksonville Center
Mon 05:29:52 PM 31.9364 -82.1042 23° Northeast 477 549 37,000  Level Jacksonville Center
Mon 05:30:52 PM 32.0697 -82.0344 24° Northeast 477 549 37,000  Level Jacksonville Center
Mon 05:31:52 PM 32.1944 -81.9694 24° Northeast 481 554 37,000  Level Jacksonville Center
Mon 05:32:52 PM 32.3025 -81.9094 25° Northeast 481 554 37,000  Level Jacksonville Center
Mon 05:33:52 PM 32.4397 -81.8367 24° Northeast 481 554 37,000  Level Jacksonville Center
Mon 05:34:52 PM 32.5625 -81.7686 25° Northeast 481 554 37,000  Level Jacksonville Center
Mon 05:35:52 PM 32.6767 -81.7078 24° Northeast 481 554 37,000  Level Jacksonville Center
Mon 05:36:52 PM 32.8158 -81.6319 25° Northeast 486 559 37,000  Level Jacksonville Center
Mon 05:37:52 PM 32.9403 -81.5633 25° Northeast 486 559 37,000  Level Jacksonville Center
Mon 05:38:52 PM 33.0647 -81.4947 25° Northeast 486 559 37,000 -50 Level Jacksonville Center
Mon 05:39:52 PM 33.1892 -81.4281 24° Northeast 481 554 36,900  Descending Jacksonville Center
Mon 05:40:52 PM 33.2992 -81.3642 26° Northeast 481 554 37,000  Climbing Jacksonville Center
Mon 05:41:52 PM 33.4339 -81.2947 23° Northeast 481 554 36,900  Descending Jacksonville Center
Mon 05:42:52 PM 33.5583 -81.2228 26° Northeast 481 554 37,000 50 Climbing Jacksonville Center
Mon 05:43:52 PM 33.6806 -81.1556 25° Northeast 481 554 37,000  Level Jacksonville Center
Mon 05:44:52 PM 33.8006 -81.0831 27° Northeast 481 554 37,000 -50 Level Jacksonville Center
Mon 05:45:52 PM 33.9139 -80.9981 32° Northeast 476 548 36,900 -50 Descending Jacksonville Center
Mon 05:46:52 PM 34.0167 -80.8858 42° Northeast 482 555 36,900  Level Jacksonville Center
Mon 05:47:52 PM 34.1189 -80.7706 43° Northeast 488 562 36,900 50 Level Jacksonville Center
Mon 05:48:52 PM 34.2194 -80.6625 42° Northeast 488 562 37,000 50 Climbing Jacksonville Center
Mon 05:49:52 PM 34.3194 -80.5494 43° Northeast 488 562 37,000  Level Jacksonville Center
Mon 05:51:55 PM 34.5161 -80.3281 43° Northeast 482 555 37,000  Level Washington Center
Mon 05:52:53 PM 34.6231 -80.2081 43° Northeast 490 564 37,000  Level Washington Center
Mon 05:53:53 PM 34.7211 -80.0972 43° Northeast 488 562 37,000  Level Washington Center
Mon 05:54:52 PM 34.8169 -79.9914 42° Northeast 488 562 37,000  Level Washington Center
Mon 05:55:52 PM 34.9169 -79.8778 43° Northeast 494 568 37,000  Level Washington Center
Mon 05:56:53 PM 35.0211 -79.7639 42° Northeast 489 563 37,000  Level Washington Center
Mon 05:57:54 PM 35.1233 -79.6500 42° Northeast 489 563 37,000  Level Washington Center
Mon 05:58:52 PM 35.2331 -79.5511 36° Northeast 489 563 37,000  Level Washington Center
Mon 05:59:52 PM 35.3506 -79.4678 30° Northeast 489 563 37,000  Level Washington Center
Mon 06:00:53 PM 35.4786 -79.3747 31° Northeast 483 556 37,000  Level Washington Center
Mon 06:01:54 PM 35.5811 -79.3003 31° Northeast 483 556 37,000  Level Washington Center
Mon 06:02:54 PM 35.6986 -79.2164 30° Northeast 483 556 37,000  Level Washington Center
Mon 06:03:52 PM 35.8222 -79.1219 32° Northeast 478 550 37,000  Level Washington Center
Mon 06:04:52 PM 35.9417 -79.0375 30° Northeast 478 550 37,000  Level Washington Center
Mon 06:05:53 PM 36.0547 -78.9525 31° Northeast 478 550 37,000  Level Washington Center
Mon 06:06:53 PM 36.1719 -78.8650 31° Northeast 478 550 37,000  Level Washington Center
Mon 06:07:54 PM 36.2847 -78.7819 31° Northeast 478 550 37,000  Level Washington Center
Mon 06:08:54 PM 36.3997 -78.6939 32° Northeast 478 550 37,000  Level Washington Center
Mon 06:09:52 PM 36.5144 -78.6078 31° Northeast 478 550 37,000  Level Washington Center
Mon 06:10:53 PM 36.6294 -78.5217 31° Northeast 478 550 37,000  Level Washington Center
Mon 06:11:53 PM 36.7400 -78.4353 32° Northeast 473 544 37,000  Level Washington Center
Mon 06:12:54 PM 36.8525 -78.3486 32° Northeast 473 544 37,000  Level Washington Center
Mon 06:13:54 PM 36.9672 -78.2589 32° Northeast 473 544 37,000  Level Washington Center
Mon 06:14:52 PM 37.0733 -78.1794 31° Northeast 487 560 37,000  Level Washington Center
Mon 06:15:52 PM 37.1961 -78.0869 31° Northeast 482 555 37,000  Level Washington Center
Mon 06:16:53 PM 37.3106 -77.9994 31° Northeast 482 555 37,000  Level Washington Center
Mon 06:17:54 PM 37.4231 -77.9114 32° Northeast 482 555 37,000  Level Washington Center
Mon 06:18:52 PM 37.5372 -77.8233 31° Northeast 477 549 37,000  Level Washington Center
Mon 06:19:54 PM 37.6456 -77.7242 36° Northeast 477 549 37,000  Level Washington Center
Mon 06:20:54 PM 37.7556 -77.6247 36° Northeast 477 549 37,000  Level Washington Center
Mon 06:21:54 PM 37.8636 -77.5250 36° Northeast 482 555 37,000  Level Washington Center
Mon 06:22:55 PM 37.9736 -77.4253 36° Northeast 482 555 37,000  Level Washington Center
Mon 06:23:52 PM 38.0814 -77.3275 36° Northeast 482 555 37,000  Level Washington Center
Mon 06:24:53 PM 38.1892 -77.2297 35° Northeast 482 555 37,000  Level Washington Center
Mon 06:25:53 PM 38.2969 -77.1261 37° Northeast 482 555 37,000  Level Washington Center
Mon 06:26:54 PM 38.4044 -77.0250 36° Northeast 482 555 37,000  Level Washington Center
Mon 06:27:54 PM 38.5119 -76.9264 36° Northeast 482 555 37,000  Level Washington Center
Mon 06:28:52 PM 38.6194 -76.8247 36° Northeast 482 555 37,000 -252 Level Washington Center
Mon 06:29:53 PM 38.7247 -76.7225 37° Northeast 482 555 36,500 -744 Descending Washington Center
Mon 06:30:53 PM 38.8236 -76.6094 42° Northeast 477 549 35,500 -1,339 Descending Washington Center
Mon 06:31:54 PM 38.9203 -76.4961 42° Northeast 472 543 33,800 -1,785 Descending Washington Center
Mon 06:32:54 PM 39.0192 -76.3850 41° Northeast 467 537 31,900 -2,136 Descending Washington Center
Mon 06:33:52 PM 39.1136 -76.2711 43° Northeast 462 532 29,600 -2,441 Descending Washington Center
Mon 06:34:52 PM 39.2100 -76.1594 42° Northeast 462 532 27,100 -1,328 Descending Washington Center
Mon 06:35:54 PM 39.3000 -76.0608 40° Northeast 462 532 26,900 -244 Descending Washington Center
Mon 06:36:55 PM 39.3942 -75.9489 43° Northeast 462 532 26,600 -1,119 Descending Washington Center
Mon 06:37:52 PM 39.4903 -75.8361 42° Northeast 462 532 24,700 -2,034 Descending Washington Center
Mon 06:38:53 PM 39.5844 -75.7233 43° Northeast 457 526 22,600 -2,033 Descending Washington Center
Mon 06:39:53 PM 39.6739 -75.6131 43° Northeast 451 519 20,600 -2,033 Descending Washington Center
Mon 06:40:54 PM 39.7614 -75.5106 42° Northeast 439 505 18,500 -1,835 Descending Washington Center
Mon 06:41:54 PM 39.8531 -75.3997 43° Northeast 426 490 16,900 -1,780 Descending Washington Center
Mon 06:42:52 PM 39.9361 -75.2992 43° Northeast 406 467 15,000 -1,881 Descending Washington Center
Mon 06:43:52 PM 40.0150 -75.2042 43° Northeast 393 452 13,200 -1,549 Descending Washington Center
Mon 06:46:00 PM 40.1060 -75.0867 45° Northeast  Level FlightAware
Mon 06:46:56 PM 40.2333 -74.9333 45° Northeast 291 335 8,700  Level New TRACON
Mon 06:47:57 PM 40.2833 -74.8667 45° Northeast 284 327 8,000 -298 Descending New TRACON
Mon 06:48:57 PM 40.3333 -74.7833 52° Northeast 286 329 8,100 -300 Climbing New TRACON
Mon 06:49:57 PM 40.4000 -74.7167 37° Northeast 286 329 7,400 -1,008 Descending New TRACON
Mon 06:50:56 PM 40.4667 -74.6667 30° Northeast 290 334 6,100 -655 Descending New TRACON
Mon 06:51:56 PM 40.5333 -74.6333 21° North 291 335 6,100  Level New TRACON
Mon 06:52:57 PM 40.6167 -74.6167 North 291 335 6,100  Level New TRACON
Mon 06:53:57 PM 40.7000 -74.6000 North 292 336 6,100 -500 Level New TRACON
Mon 06:54:57 PM 40.7667 -74.5500 30° Northeast 283 326 5,100 -500 Descending New TRACON
Mon 06:55:57 PM 40.8167 -74.4833 45° Northeast 285 328 5,100 -250 Level New TRACON
Mon 06:57:00 PM 40.7459 -74.3462 105° East  Level FlightAware
Mon 06:58:57 PM 40.9167 -74.2500 114° Southeast 205 236 4,100  Level New TRACON
Mon 06:59:57 PM 40.9000 -74.1833 108° East 176 203 4,100 -333 Level New TRACON
Mon 07:01:00 PM 40.7758 -74.1745 177° South  Level Estimated
Mon 07:01:57 PM 40.8500 -74.0833 177° South 167 192 3,100  Level New TRACON
Mon 07:03:00 PM 40.7351 -74.1408 201° Southwest  Level FlightAware
Mon 07:03:57 PM 40.7667 -74.1167 201° Southwest 167 192 1,500  Level New TRACON
Mon 07:04:00 PM 40.6833 -74.1667 114° Southeast  Level FlightAware
Mon 07:04:57 PM 40.7333 -74.1500 217° Southwest 133 153 700  Level New TRACON

Login

Don't have an account? Register now (free) for customized features, flight alerts, and more!